Harry B. Settoon — WDE5658 — position and weather

sailwx.info

Track history (hours):
 
Tides and Currents Weather Stations Pressure Air Temp Water Temp Dewpoint Dewpoint Depression Visibility Wind Speed Wind Dir Waves Ship Positions

Harry B. Settoon

Owner: Settoon Towing, LLC, Houma, LA. More information available from US FCC via Universal Licensing System and Coast Guard Vessel Documentation Center.

Last reported at 2017-Jul-27 22:03 UTC. Time now 2017-Aug-19 20:42 UTC.
Position N 29°34' W 090°32'.
Warning: this ship's position is 22 days out of date.

Length 16 m.

Type: Tug. MMSI: 367369920.

Date/timePositionNaut miles runAvg speedWind from/ knotsBaromVisibWave heightAir tempDewpointWater temp
2017-Jul-27 22:03N 29°34' W 090°32'0 6.9
2017-Jul-27 21:59N 29°34' W 090°33'3 6.6
2017-Jul-27 21:30N 29°35' W 090°36'3 6.7
2017-Jul-27 21:00N 29°36' W 090°40'2 4.7
2017-Jul-27 20:30N 29°36' W 090°43'2 3.2
2017-Jul-27 20:00N 29°35' W 090°43'0 0.0
2017-Jul-27 19:30N 29°35' W 090°43'2 3.1
2017-Jul-27 19:00N 29°34' W 090°44'2 4.2
2017-Jul-27 18:30N 29°32' W 090°46'  
2017-Jul-21 10:53N 29°37' W 090°56'0 0.7
2017-Jul-21 10:30N 29°38' W 090°56'0 0.0
2017-Jul-21 09:59N 29°38' W 090°56'0 0.0
2017-Jul-21 09:27N 29°38' W 090°56'0 0.0
2017-Jul-21 08:35N 29°38' W 090°56'4 0.3
2017-Jul-20 16:26N 29°33' W 090°55'3 5.0
2017-Jul-20 15:53N 29°32' W 090°52'2 5.2
2017-Jul-20 15:31N 29°32' W 090°50'3 5.3
2017-Jul-20 15:01N 29°32' W 090°47'4 4.2
2017-Jul-20 14:01N 29°35' W 090°43'0 0.1
2017-Jul-20 13:31N 29°35' W 090°43'0 0.0
2017-Jul-20 13:00N 29°35' W 090°43'0 0.8
2017-Jul-20 12:30N 29°35' W 090°43'2 3.6
2017-Jul-20 12:01N 29°37' W 090°42'2 4.7
2017-Jul-20 11:30N 29°36' W 090°39'3 4.8
2017-Jul-20 10:59N 29°35' W 090°37'2 4.5
2017-Jul-20 10:26N 29°34' W 090°34'2 5.2
2017-Jul-20 10:01N 29°34' W 090°31'  
Track history (hours):
 
Tides and Currents Weather Stations Pressure Air Temp Water Temp Dewpoint Dewpoint Depression Visibility Wind Speed Wind Dir Waves Ship Positions

Harry B. Settoon

Owner: Settoon Towing, LLC, Houma, LA. More information available from US FCC via Universal Licensing System and Coast Guard Vessel Documentation Center.

Last reported at 2017-Jul-27 22:03 UTC. Time now 2017-Aug-19 20:42 UTC.
Position N 29°34' W 090°32'.
Warning: this ship's position is 22 days out of date.

Length 16 m.

Type: Tug. MMSI: 367369920.

Date/timePositionNaut miles runAvg speedWind from/ knotsBaromVisibWave heightAir tempDewpointWater temp
2017-Jul-27 22:03N 29°34' W 090°32'0 6.9
2017-Jul-27 21:59N 29°34' W 090°33'3 6.6
2017-Jul-27 21:30N 29°35' W 090°36'3 6.7
2017-Jul-27 21:00N 29°36' W 090°40'2 4.7
2017-Jul-27 20:30N 29°36' W 090°43'2 3.2
2017-Jul-27 20:00N 29°35' W 090°43'0 0.0
2017-Jul-27 19:30N 29°35' W 090°43'2 3.1
2017-Jul-27 19:00N 29°34' W 090°44'2 4.2
2017-Jul-27 18:30N 29°32' W 090°46'  
2017-Jul-21 10:53N 29°37' W 090°56'0 0.7
2017-Jul-21 10:30N 29°38' W 090°56'0 0.0
2017-Jul-21 09:59N 29°38' W 090°56'0 0.0
2017-Jul-21 09:27N 29°38' W 090°56'0 0.0
2017-Jul-21 08:35N 29°38' W 090°56'4 0.3
2017-Jul-20 16:26N 29°33' W 090°55'3 5.0
2017-Jul-20 15:53N 29°32' W 090°52'2 5.2
2017-Jul-20 15:31N 29°32' W 090°50'3 5.3
2017-Jul-20 15:01N 29°32' W 090°47'4 4.2
2017-Jul-20 14:01N 29°35' W 090°43'0 0.1
2017-Jul-20 13:31N 29°35' W 090°43'0 0.0
2017-Jul-20 13:00N 29°35' W 090°43'0 0.8
2017-Jul-20 12:30N 29°35' W 090°43'2 3.6
2017-Jul-20 12:01N 29°37' W 090°42'2 4.7
2017-Jul-20 11:30N 29°36' W 090°39'3 4.8
2017-Jul-20 10:59N 29°35' W 090°37'2 4.5
2017-Jul-20 10:26N 29°34' W 090°34'2 5.2
2017-Jul-20 10:01N 29°34' W 090°31'  

Dump ship's entire track history